Terminal Aerodrome Forecast
Issued by NWS

Home | Current Version | Previous Version | Text Only | Print | Product List | Glossary On
Versions: 1 2 3 4 5 6 7 8 9 10 11 12 13 14 15
654
FTUS44 KLZK 220816 AAA
TAFHOT
TAF AMD
KHOT 220816Z 2208/2306 10009KT P6SM VCSH SCT012 BKN035
      TEMPO 2208/2210 5SM -SHRA BR BKN020
     FM221000 07008KT 5SM BR VCSH BKN015 OVC035
      TEMPO 2210/2212 3SM -SHRA BR OVC008
     FM221200 30008G15KT 5SM BR VCSH BKN008 OVC020
     FM222000 28008G15KT 6SM BR VCSH BKN020 OVC035=

USA.gov is the U.S. government's official web portal to all federal, state and local government web resources and services.